createdAt,value
2023-02-20T00:00:50.575Z,3.10
2023-02-20T00:03:22.052Z,4.58
2023-02-20T00:05:53.688Z,5.75
2023-02-20T00:08:26.649Z,5.50
2023-02-20T00:10:59.534Z,3.77
2023-02-20T00:13:32.001Z,3.75
2023-02-20T00:16:03.467Z,3.90
2023-02-20T00:18:53.714Z,3.98
2023-02-20T00:23:56.017Z,3.02
2023-02-20T00:26:27.363Z,3.67
2023-02-20T00:28:58.931Z,3.80
2023-02-20T00:31:30.398Z,3.80
2023-02-20T00:34:01.957Z,4.85
2023-02-20T00:36:33.057Z,4.53
2023-02-20T00:39:04.497Z,4.62
2023-02-20T00:41:36.245Z,4.17
2023-02-20T00:44:08.430Z,3.55
2023-02-20T00:46:39.852Z,5.42
2023-02-20T00:49:11.327Z,4.12
2023-02-20T00:51:42.829Z,3.22
2023-02-20T00:54:14.444Z,4.28
2023-02-20T00:56:45.801Z,4.60
2023-02-20T00:59:17.365Z,3.90
2023-02-20T01:01:48.853Z,5.12
2023-02-20T01:04:20.885Z,3.90
2023-02-20T01:06:52.295Z,4.28
2023-02-20T01:09:24.254Z,4.97
2023-02-20T01:11:56.204Z,4.03
2023-02-20T01:14:27.721Z,3.70
2023-02-20T01:16:59.033Z,3.55
2023-02-20T01:19:31.241Z,4.65
2023-02-20T01:22:04.365Z,3.58
2023-02-20T01:24:35.848Z,4.35
2023-02-20T01:27:07.273Z,3.45
2023-02-20T01:29:38.805Z,3.67
2023-02-20T01:32:12.472Z,3.87
2023-02-20T01:34:43.966Z,3.92
2023-02-20T01:37:16.790Z,3.58
2023-02-20T01:39:49.908Z,3.55
2023-02-20T01:42:24.582Z,3.10
2023-02-20T01:44:56.000Z,3.12
2023-02-20T01:47:27.499Z,3.42
2023-02-20T01:50:03.305Z,3.52
2023-02-20T01:52:38.810Z,3.40
2023-02-20T01:55:13.858Z,4.60
2023-02-20T01:57:48.397Z,3.30
2023-02-20T02:00:24.252Z,3.60
2023-02-20T02:02:58.663Z,4.05
2023-02-20T02:05:31.695Z,4.25
2023-02-20T02:08:05.472Z,4.60
2023-02-20T02:10:40.347Z,4.30
2023-02-20T02:13:13.191Z,4.45
2023-02-20T02:15:44.561Z,3.95
2023-02-20T02:18:41.915Z,3.92
2023-02-20T02:21:55.520Z,4.10
2023-02-20T02:24:57.020Z,3.50
2023-02-20T02:27:52.396Z,3.77
2023-02-20T02:30:48.610Z,4.05
2023-02-20T02:34:00.324Z,4.47
2023-02-20T02:36:56.680Z,4.90
2023-02-20T02:39:32.135Z,3.87
2023-02-20T02:42:07.461Z,4.42
2023-02-20T02:44:43.002Z,5.30
2023-02-20T02:47:17.171Z,4.53
2023-02-20T02:49:52.164Z,5.20
2023-02-20T02:52:41.858Z,4.40
2023-02-20T02:55:13.601Z,4.05
2023-02-20T02:57:45.072Z,4.78
2023-02-20T03:00:19.965Z,4.33
2023-02-20T03:02:56.445Z,4.25
2023-02-20T03:05:33.515Z,4.12
2023-02-20T03:08:07.098Z,4.05
2023-02-20T03:10:38.537Z,4.60
2023-02-20T03:13:12.821Z,4.33
2023-02-20T03:15:47.374Z,3.95
2023-02-20T03:18:23.377Z,4.85
2023-02-20T03:20:57.790Z,4.55
2023-02-20T03:23:32.584Z,6.17
2023-02-20T03:26:07.288Z,3.20
2023-02-20T03:28:41.688Z,3.00
2023-02-20T03:31:16.290Z,2.92
2023-02-20T03:34:08.824Z,2.95
2023-02-20T03:37:00.998Z,3.72
2023-02-20T03:39:53.127Z,2.58
2023-02-20T03:42:44.260Z,2.72
2023-02-20T03:45:17.832Z,3.40
2023-02-20T03:47:52.928Z,3.15
2023-02-20T03:50:24.476Z,3.30
2023-02-20T03:52:56.008Z,3.42
2023-02-20T03:55:27.695Z,4.33
2023-02-20T03:58:02.079Z,4.30
2023-02-20T04:00:36.428Z,4.58
2023-02-20T04:03:10.849Z,3.15
2023-02-20T04:05:45.259Z,3.40
2023-02-20T04:08:20.064Z,4.75
2023-02-20T04:10:55.362Z,3.75
2023-02-20T04:13:28.235Z,3.67
2023-02-20T04:16:02.513Z,4.37
2023-02-20T04:18:34.436Z,5.22
2023-02-20T04:21:09.010Z,4.20
2023-02-20T04:23:47.885Z,4.78
2023-02-20T04:26:22.273Z,5.50
2023-02-20T04:28:54.432Z,4.33
2023-02-20T04:31:27.027Z,5.28
2023-02-20T04:33:58.518Z,5.97
2023-02-20T04:36:30.466Z,4.40
2023-02-20T04:39:01.976Z,6.08
2023-02-20T04:41:33.410Z,4.87
2023-02-20T04:44:22.776Z,5.22
2023-02-20T04:46:54.238Z,5.45
2023-02-20T04:49:27.104Z,5.30
2023-02-20T04:51:58.745Z,5.45
2023-02-20T04:54:30.238Z,6.28
2023-02-20T04:57:01.675Z,5.40
2023-02-20T04:59:33.117Z,5.72
2023-02-20T05:02:04.589Z,6.30
2023-02-20T05:04:37.158Z,5.37
2023-02-20T05:07:08.796Z,5.45
2023-02-20T05:09:40.530Z,4.55
2023-02-20T05:12:11.886Z,6.20
2023-02-20T05:14:43.490Z,6.47
2023-02-20T05:17:14.869Z,5.20
2023-02-20T05:19:46.291Z,4.85
2023-02-20T05:22:20.560Z,4.90
2023-02-20T05:24:53.317Z,5.70
2023-02-20T05:27:26.134Z,5.03
2023-02-20T05:30:00.501Z,4.90
2023-02-20T05:32:32.502Z,6.55
2023-02-20T05:35:03.982Z,6.70
2023-02-20T05:37:35.366Z,6.30
2023-02-20T05:40:08.122Z,5.95
2023-02-20T05:42:39.574Z,4.42
2023-02-20T05:45:11.619Z,4.75
2023-02-20T05:47:42.983Z,4.53
2023-02-20T05:50:14.504Z,5.05
2023-02-20T05:52:47.001Z,4.58
2023-02-20T05:55:18.673Z,4.50
2023-02-20T05:57:50.112Z,3.33
2023-02-20T06:00:22.562Z,3.15
2023-02-20T06:02:54.179Z,3.20
2023-02-20T06:05:26.414Z,2.62
2023-02-20T06:07:58.797Z,3.47
2023-02-20T06:10:30.183Z,3.95
2023-02-20T06:13:02.216Z,3.95
2023-02-20T06:15:33.617Z,5.55
2023-02-20T06:18:05.194Z,4.78
2023-02-20T06:20:36.574Z,3.75
2023-02-20T06:23:08.225Z,4.33
2023-02-20T06:25:39.713Z,4.53
2023-02-20T06:28:12.161Z,4.62
2023-02-20T06:30:43.599Z,4.47
2023-02-20T06:33:15.071Z,5.28
2023-02-20T06:35:46.490Z,3.70
2023-02-20T06:38:17.970Z,5.80
2023-02-20T06:40:49.508Z,5.42
2023-02-20T06:43:21.414Z,5.80
2023-02-20T06:45:52.851Z,5.17
2023-02-20T06:48:24.550Z,5.65
2023-02-20T06:50:57.329Z,5.65
2023-02-20T06:53:28.887Z,4.17
2023-02-20T06:56:00.184Z,6.50
2023-02-20T06:58:31.635Z,4.70
2023-02-20T07:01:03.033Z,5.45
2023-02-20T07:03:34.577Z,6.70
2023-02-20T07:06:06.738Z,6.45
2023-02-20T07:08:38.165Z,7.17
2023-02-20T07:11:09.640Z,4.65
2023-02-20T07:13:41.213Z,6.67
2023-02-20T07:16:13.255Z,5.78
2023-02-20T07:18:45.090Z,5.70
2023-02-20T07:21:17.018Z,5.33
2023-02-20T07:23:48.528Z,5.15
2023-02-20T07:26:22.739Z,4.83
2023-02-20T07:28:55.217Z,4.03
2023-02-20T07:31:26.897Z,4.60
2023-02-20T07:33:59.057Z,5.62
2023-02-20T07:36:31.002Z,6.35
2023-02-20T07:39:04.123Z,5.80
2023-02-20T07:41:35.870Z,6.60
2023-02-20T07:44:07.978Z,6.75
2023-02-20T07:46:39.412Z,5.10
2023-02-20T07:49:10.867Z,4.53
2023-02-20T07:51:42.300Z,4.85
2023-02-20T07:54:13.828Z,6.10
2023-02-20T07:56:45.302Z,5.62
2023-02-20T07:59:16.742Z,4.75
2023-02-20T08:01:48.273Z,6.47
2023-02-20T08:04:19.832Z,5.15
2023-02-20T08:06:51.371Z,4.45
2023-02-20T08:09:22.771Z,4.40
2023-02-20T08:11:54.277Z,4.72
2023-02-20T08:14:25.742Z,3.80
2023-02-20T08:16:57.285Z,3.60
2023-02-20T08:19:28.632Z,4.17
2023-02-20T08:22:00.059Z,3.90
2023-02-20T08:24:31.534Z,3.70
2023-02-20T08:27:02.987Z,3.72
2023-02-20T08:29:34.617Z,3.50
2023-02-20T08:32:07.251Z,4.00
2023-02-20T08:34:40.995Z,3.55
2023-02-20T08:37:12.710Z,3.20
2023-02-20T08:39:44.182Z,4.20
2023-02-20T08:42:17.930Z,2.40
2023-02-20T08:44:49.303Z,3.02
2023-02-20T08:47:23.629Z,3.83
2023-02-20T08:49:54.952Z,3.20
2023-02-20T08:52:27.201Z,3.37
2023-02-20T08:54:59.638Z,4.00
2023-02-20T08:57:31.583Z,3.15
2023-02-20T09:00:03.679Z,2.50
2023-02-20T09:02:35.202Z,3.67
2023-02-20T09:05:08.202Z,3.83
2023-02-20T09:07:39.716Z,2.95
2023-02-20T09:10:11.454Z,4.30
2023-02-20T09:12:43.100Z,3.65
2023-02-20T09:15:18.016Z,3.30
2023-02-20T09:17:51.893Z,4.72
2023-02-20T09:20:24.478Z,3.42
2023-02-20T09:22:59.875Z,3.70
2023-02-20T09:25:31.313Z,3.65
2023-02-20T09:28:02.812Z,3.77
2023-02-20T09:30:34.214Z,5.22
2023-02-20T09:33:05.821Z,2.80
2023-02-20T09:35:37.425Z,3.62
2023-02-20T09:38:08.862Z,4.12
2023-02-20T09:40:40.321Z,4.45
2023-02-20T09:43:17.759Z,3.10
2023-02-20T09:46:01.763Z,3.17
2023-02-20T09:48:43.231Z,3.20
2023-02-20T09:51:17.579Z,3.30
2023-02-20T09:53:54.673Z,2.85
2023-02-20T09:56:33.729Z,2.50
2023-02-20T09:59:09.313Z,2.72
2023-02-20T10:01:44.515Z,2.33
2023-02-20T10:04:19.636Z,3.50
2023-02-20T10:06:54.402Z,2.92
2023-02-20T10:09:25.827Z,2.60
2023-02-20T10:12:10.799Z,2.62
2023-02-20T10:15:04.676Z,5.55
2023-02-20T10:18:08.927Z,2.12
2023-02-20T10:20:44.093Z,1.47
2023-02-20T10:23:20.017Z,2.05
2023-02-20T10:25:55.144Z,2.75
2023-02-20T10:28:27.070Z,1.62
2023-02-20T10:31:03.079Z,1.80
2023-02-20T10:33:42.185Z,2.15
2023-02-20T10:36:17.049Z,2.08
2023-02-20T10:38:52.063Z,1.80
2023-02-20T10:41:27.290Z,1.47
2023-02-20T10:44:02.403Z,2.20
2023-02-20T10:46:48.685Z,2.27
2023-02-20T10:49:12.776Z,2.45
2023-02-20T10:51:47.772Z,2.52
2023-02-20T10:54:22.536Z,2.42
2023-02-20T10:56:57.771Z,2.42
2023-02-20T10:59:32.404Z,2.25
2023-02-20T11:02:06.767Z,2.98
2023-02-20T11:04:41.385Z,2.70
2023-02-20T11:07:15.761Z,2.80
2023-02-20T11:09:47.350Z,2.83
2023-02-20T11:12:28.002Z,3.25
2023-02-20T11:15:02.744Z,3.55
2023-02-20T11:17:35.802Z,2.67
2023-02-20T11:20:10.351Z,2.75
2023-02-20T11:22:44.481Z,3.27
2023-02-20T11:25:22.779Z,2.65
2023-02-20T11:27:57.087Z,2.12
2023-02-20T11:30:35.235Z,2.40
2023-02-20T11:33:09.540Z,2.75
2023-02-20T11:35:41.778Z,2.37
2023-02-20T11:38:44.886Z,3.10
2023-02-20T11:41:33.544Z,3.27
2023-02-20T11:44:23.960Z,2.45
2023-02-20T11:47:32.741Z,2.70
2023-02-20T11:50:22.916Z,2.25
2023-02-20T11:53:00.009Z,2.65
2023-02-20T11:55:32.110Z,2.35
2023-02-20T11:58:04.546Z,2.42
2023-02-20T12:00:48.920Z,2.08
2023-02-20T12:03:23.578Z,2.67
2023-02-20T12:05:55.175Z,2.75
2023-02-20T12:11:38.046Z,2.52
2023-02-20T12:14:14.086Z,3.10
2023-02-20T12:17:02.396Z,2.42
2023-02-20T12:19:40.814Z,2.95
2023-02-20T12:22:17.066Z,3.92
2023-02-20T12:25:13.739Z,2.92
2023-02-20T12:27:55.036Z,3.08
2023-02-20T12:30:32.381Z,2.40
2023-02-20T12:33:11.536Z,2.37
2023-02-20T12:35:46.783Z,3.17
2023-02-20T12:38:30.910Z,3.17
2023-02-20T12:41:16.464Z,2.40
2023-02-20T12:43:52.463Z,2.33
2023-02-20T12:46:28.237Z,2.58
2023-02-20T12:49:08.935Z,2.67
2023-02-20T12:51:44.281Z,2.67
2023-02-20T12:54:22.898Z,2.55
2023-02-20T12:57:05.459Z,2.40
2023-02-20T12:59:41.440Z,2.87
2023-02-20T13:02:32.588Z,2.60
2023-02-20T13:04:58.431Z,3.12
2023-02-20T13:07:34.013Z,2.90
2023-02-20T13:10:10.086Z,3.27
2023-02-20T13:12:41.573Z,2.90
2023-02-20T13:15:24.248Z,2.72
2023-02-20T13:17:58.937Z,2.75
2023-02-20T13:20:33.581Z,1.57
2023-02-20T13:23:07.637Z,2.08
2023-02-20T13:25:46.133Z,1.70
2023-02-20T13:28:38.976Z,2.42
2023-02-20T13:31:14.173Z,1.92
2023-02-20T13:33:47.203Z,1.95
2023-02-20T13:39:52.856Z,1.45
2023-02-20T13:42:29.634Z,1.30
2023-02-20T13:45:01.221Z,1.50
2023-02-20T13:47:41.333Z,1.45
2023-02-20T13:50:33.576Z,1.27
2023-02-20T13:53:06.688Z,1.72
2023-02-20T13:55:38.875Z,1.20
2023-02-20T13:58:16.690Z,1.40
2023-02-20T14:00:54.095Z,0.93
2023-02-20T14:03:28.273Z,1.22
2023-02-20T14:06:13.352Z,1.30
2023-02-20T14:08:47.057Z,2.55
2023-02-20T14:11:25.531Z,1.57
2023-02-20T14:13:58.916Z,1.67
2023-02-20T14:16:33.217Z,1.98
2023-02-20T14:19:07.341Z,1.90
2023-02-20T14:21:40.556Z,1.90
2023-02-20T14:24:21.114Z,2.20
2023-02-20T14:26:55.768Z,3.42
2023-02-20T14:29:30.353Z,2.20
2023-02-20T14:32:04.663Z,1.60
2023-02-20T14:34:39.302Z,3.65
2023-02-20T14:37:15.027Z,2.27
2023-02-20T14:39:53.799Z,2.12
2023-02-20T14:42:26.976Z,1.90
2023-02-20T14:45:02.734Z,1.82
2023-02-20T14:47:35.623Z,2.00
2023-02-20T14:50:22.224Z,2.10
2023-02-20T14:53:12.324Z,2.08
2023-02-20T14:55:44.441Z,2.40
2023-02-20T14:58:19.022Z,2.75
2023-02-20T15:00:52.115Z,1.80
2023-02-20T15:03:31.419Z,2.60
2023-02-20T15:06:04.261Z,2.25
2023-02-20T15:08:38.368Z,2.05
2023-02-20T15:11:12.672Z,2.20
2023-02-20T15:13:46.645Z,2.10
2023-02-20T15:16:21.357Z,2.50
2023-02-20T15:18:53.820Z,2.25
2023-02-20T15:21:36.943Z,3.30
2023-02-20T15:24:32.241Z,2.35
2023-02-20T15:27:12.878Z,2.10
2023-02-20T15:29:45.578Z,3.75
2023-02-20T15:32:27.039Z,2.33
2023-02-20T15:34:59.143Z,2.87
2023-02-20T15:37:38.569Z,2.83
2023-02-20T15:40:16.162Z,2.55
2023-02-20T15:42:49.930Z,1.75
2023-02-20T15:45:21.630Z,1.85
2023-02-20T15:47:53.307Z,2.05
2023-02-20T15:50:26.271Z,2.65
2023-02-20T15:52:58.725Z,3.47
2023-02-20T15:55:33.134Z,4.08
2023-02-20T15:58:14.088Z,1.98
2023-02-20T16:00:43.058Z,2.47
2023-02-20T16:03:14.586Z,1.65
2023-02-20T16:05:46.033Z,2.27
2023-02-20T16:08:17.686Z,2.10
2023-02-20T16:10:49.139Z,2.58
2023-02-20T16:13:27.196Z,2.67
2023-02-20T16:15:59.397Z,2.75
2023-02-20T16:18:30.800Z,3.65
2023-02-20T16:21:02.348Z,3.30
2023-02-20T16:23:33.965Z,4.10
2023-02-20T16:26:05.536Z,4.62
2023-02-20T16:28:37.240Z,5.58
2023-02-20T16:31:08.817Z,4.47
2023-02-20T16:33:40.467Z,4.05
2023-02-20T16:36:20.030Z,4.65
2023-02-20T16:38:44.953Z,4.17
2023-02-20T16:41:16.604Z,3.65
2023-02-20T16:43:49.470Z,4.20
2023-02-20T16:46:36.378Z,4.10
2023-02-20T16:48:54.896Z,3.05
2023-02-20T16:51:27.970Z,4.25
2023-02-20T16:53:59.944Z,4.10
2023-02-20T16:56:31.364Z,4.30
2023-02-20T16:59:04.313Z,6.22
2023-02-20T17:01:37.477Z,4.40
2023-02-20T17:04:09.812Z,3.65
2023-02-20T17:06:41.168Z,7.25
2023-02-20T17:09:12.626Z,3.95
2023-02-20T17:11:44.917Z,3.65
2023-02-20T17:14:16.513Z,3.37
2023-02-20T17:16:51.169Z,3.67
2023-02-20T17:19:22.836Z,3.62
2023-02-20T17:21:54.384Z,3.72
2023-02-20T17:24:25.838Z,4.40
2023-02-20T17:26:57.330Z,4.05
2023-02-20T17:29:28.984Z,3.95
2023-02-20T17:32:00.367Z,2.92
2023-02-20T17:34:31.807Z,2.72
2023-02-20T17:37:03.244Z,2.90
2023-02-20T17:39:35.403Z,3.52
2023-02-20T17:42:07.375Z,3.22
2023-02-20T17:44:39.730Z,3.25
2023-02-20T17:47:15.704Z,6.55
2023-02-20T17:49:50.402Z,5.05
2023-02-20T17:52:23.500Z,3.92
2023-02-20T17:54:56.146Z,4.45
2023-02-20T17:57:28.524Z,4.87
2023-02-20T18:00:00.186Z,4.95
2023-02-20T18:02:31.705Z,5.28
2023-02-20T18:05:03.307Z,5.08
2023-02-20T18:07:35.262Z,5.90
2023-02-20T18:10:07.609Z,6.72
2023-02-20T18:12:43.448Z,7.45
2023-02-20T18:15:18.260Z,7.40
2023-02-20T18:17:50.007Z,6.58
2023-02-20T18:20:21.406Z,7.33
2023-02-20T18:22:54.031Z,5.12
2023-02-20T18:25:38.070Z,4.95
2023-02-20T18:27:59.247Z,4.95
2023-02-20T18:30:30.969Z,4.55
2023-02-20T18:33:02.437Z,6.03
2023-02-20T18:35:34.393Z,6.10
2023-02-20T18:38:05.894Z,5.83
2023-02-20T18:40:37.425Z,5.17
2023-02-20T18:43:08.943Z,4.85
2023-02-20T18:45:41.167Z,5.10
2023-02-20T18:48:13.224Z,6.50
2023-02-20T18:50:44.981Z,5.08
2023-02-20T18:53:16.926Z,3.85
2023-02-20T18:55:48.574Z,3.98
2023-02-20T18:58:20.353Z,5.40
2023-02-20T19:00:52.302Z,3.08
2023-02-20T19:03:27.244Z,4.10
2023-02-20T19:06:01.718Z,3.30
2023-02-20T19:08:34.183Z,3.85
2023-02-20T19:11:06.821Z,4.70
2023-02-20T19:13:39.906Z,5.70
2023-02-20T19:16:11.746Z,4.17
2023-02-20T19:18:50.430Z,5.70
2023-02-20T19:21:18.469Z,4.95
2023-02-20T19:23:50.931Z,5.72
2023-02-20T19:26:22.636Z,4.78
2023-02-20T19:28:54.356Z,5.17
2023-02-20T19:31:27.601Z,6.67
2023-02-20T19:33:59.497Z,5.12
2023-02-20T19:36:31.220Z,4.87
2023-02-20T19:39:04.357Z,4.67
2023-02-20T19:41:37.852Z,7.05
2023-02-20T19:44:11.892Z,6.28
2023-02-20T19:46:43.712Z,6.87
2023-02-20T19:49:17.655Z,6.92
2023-02-20T19:51:50.206Z,5.42
2023-02-20T19:54:25.095Z,5.80
2023-02-20T19:56:59.285Z,5.95
2023-02-20T19:59:34.436Z,6.15
2023-02-20T20:02:08.659Z,7.15
2023-02-20T20:04:42.546Z,6.00
2023-02-20T20:07:17.833Z,4.60
2023-02-20T20:09:51.522Z,5.60
2023-02-20T20:12:41.292Z,5.50
2023-02-20T20:15:13.835Z,5.30
2023-02-20T20:17:48.222Z,6.35
2023-02-20T20:20:24.184Z,4.85
2023-02-20T20:23:01.886Z,4.75
2023-02-20T20:25:37.347Z,5.75
2023-02-20T20:28:11.761Z,5.35
2023-02-20T20:30:44.873Z,5.10
2023-02-20T20:33:20.579Z,6.25
2023-02-20T20:35:54.703Z,6.72
2023-02-20T20:38:33.720Z,5.80
2023-02-20T20:43:52.013Z,5.35
2023-02-20T20:49:09.613Z,5.22
2023-02-20T20:51:44.264Z,5.58
2023-02-20T20:54:16.499Z,4.90
2023-02-20T20:56:49.866Z,5.95
2023-02-20T20:59:21.556Z,5.05
2023-02-20T21:01:53.220Z,5.55
2023-02-20T21:04:25.136Z,5.30
2023-02-20T21:06:57.061Z,4.65
2023-02-20T21:09:29.519Z,4.92
2023-02-20T21:12:04.683Z,5.47
2023-02-20T21:14:39.907Z,5.53
2023-02-20T21:17:10.033Z,4.92
2023-02-20T21:19:42.224Z,7.37
2023-02-20T21:22:15.047Z,6.47
2023-02-20T21:24:46.944Z,5.80
2023-02-20T21:27:18.633Z,5.95
2023-02-20T21:29:56.171Z,6.78
2023-02-20T21:33:14.876Z,6.22
2023-02-20T21:35:58.807Z,5.03
2023-02-20T21:39:23.492Z,4.80
2023-02-20T21:42:13.635Z,6.12
2023-02-20T21:44:54.485Z,7.17
2023-02-20T21:47:56.181Z,4.83
2023-02-20T21:50:29.834Z,5.25
2023-02-20T21:53:02.346Z,5.33
2023-02-20T21:55:39.062Z,5.28
2023-02-20T21:58:12.813Z,6.30
2023-02-20T22:00:43.522Z,6.22
2023-02-20T22:03:14.161Z,6.83
2023-02-20T22:05:44.974Z,5.80
2023-02-20T22:08:34.329Z,6.20
2023-02-20T22:11:23.562Z,6.10
2023-02-20T22:14:12.734Z,5.58
2023-02-20T22:17:01.999Z,5.92
2023-02-20T22:19:51.480Z,6.47
2023-02-20T22:22:41.134Z,5.90
2023-02-20T22:25:30.418Z,6.53
2023-02-20T22:28:20.588Z,6.22
2023-02-20T22:31:10.898Z,4.83
2023-02-20T22:34:02.287Z,6.72
2023-02-20T22:36:51.827Z,7.03
2023-02-20T22:39:41.392Z,7.15
2023-02-20T22:42:35.301Z,6.28
2023-02-20T22:45:22.069Z,6.35
2023-02-20T22:48:11.185Z,5.85
2023-02-20T22:51:00.265Z,4.78
2023-02-20T22:53:49.850Z,5.83
2023-02-20T22:56:40.196Z,5.47
2023-02-20T22:59:30.642Z,5.40
2023-02-20T23:02:19.789Z,6.22
2023-02-20T23:05:08.952Z,6.47
2023-02-20T23:07:58.091Z,5.78
2023-02-20T23:10:47.207Z,6.17
2023-02-20T23:13:36.554Z,6.42
2023-02-20T23:16:26.147Z,5.42
2023-02-20T23:19:15.224Z,5.42
2023-02-20T23:27:52.790Z,5.10
2023-02-20T23:30:41.825Z,4.80
2023-02-20T23:33:30.929Z,5.58
2023-02-20T23:36:20.212Z,7.10
2023-02-20T23:39:11.106Z,6.67
2023-02-20T23:42:05.574Z,6.05
2023-02-20T23:44:59.615Z,5.95
2023-02-20T23:47:49.008Z,6.22
2023-02-20T23:50:38.731Z,7.15
2023-02-20T23:53:27.918Z,6.17
2023-02-20T23:56:17.555Z,5.10
2023-02-20T23:59:06.678Z,6.67
